<?xml version="1.0" encoding="utf-8"?>
<gpx xmlns:xsi="http://www.w3.org/2001/XMLSchema-instance" xmlns:xsd="http://www.w3.org/2001/XMLSchema" version="1.1" creator="Shapelink.com" xmlns="http://www.topografix.com/GPX/1/1" xmlns:gpxtpx="http://www.garmin.com/xmlschemas/TrackPointExtension/v1">
  <metadata>
    <name>Övrigt 1.95 km, 2020-08-30</name>
    <desc></desc>
    <author><name>Marian Moron</name></author> 
    <time>2020-08-30T20:01:25Z</time>
  </metadata>
  <trk>
    <name>Övrigt 1.95 km, 2020-08-30</name>
    <trkseg>
      <trkpt lat="51.229949254727" lon="4.45826974575">
        <ele>0</ele>
        <time>2020-08-30T20:01:25Z</time>
      </trkpt>
      <trkpt lat="51.230081185833" lon="4.458954463161">
        <ele>0</ele>
        <time>2020-08-30T20:01:53Z</time>
      </trkpt>
      <trkpt lat="51.230120748401" lon="4.458991762616">
        <ele>0</ele>
        <time>2020-08-30T20:01:56Z</time>
      </trkpt>
      <trkpt lat="51.230359632551" lon="4.458933843687">
        <ele>0</ele>
        <time>2020-08-30T20:02:21Z</time>
      </trkpt>
      <trkpt lat="51.230372456858" lon="4.458999976878">
        <ele>0</ele>
        <time>2020-08-30T20:02:25Z</time>
      </trkpt>
      <trkpt lat="51.230502627765" lon="4.45965443563">
        <ele>0</ele>
        <time>2020-08-30T20:03:13Z</time>
      </trkpt>
      <trkpt lat="51.230573873915" lon="4.459924584267">
        <ele>0</ele>
        <time>2020-08-30T20:03:45Z</time>
      </trkpt>
      <trkpt lat="51.230629194455" lon="4.460019383556">
        <ele>0</ele>
        <time>2020-08-30T20:03:51Z</time>
      </trkpt>
      <trkpt lat="51.23067739038" lon="4.460650624445">
        <ele>0</ele>
        <time>2020-08-30T20:05:38Z</time>
      </trkpt>
      <trkpt lat="51.23062458441" lon="4.460696473438">
        <ele>0</ele>
        <time>2020-08-30T20:05:46Z</time>
      </trkpt>
      <trkpt lat="51.230523498696" lon="4.460722373509">
        <ele>0</ele>
        <time>2020-08-30T20:06:14Z</time>
      </trkpt>
      <trkpt lat="51.230471447097" lon="4.460696557257">
        <ele>0</ele>
        <time>2020-08-30T20:06:26Z</time>
      </trkpt>
      <trkpt lat="51.230139020943" lon="4.460862435058">
        <ele>0.8</ele>
        <time>2020-08-30T20:07:08Z</time>
      </trkpt>
      <trkpt lat="51.229801146554" lon="4.460959581279">
        <ele>0.4</ele>
        <time>2020-08-30T20:07:35Z</time>
      </trkpt>
      <trkpt lat="51.229787148781" lon="4.460985062255">
        <ele>0.2</ele>
        <time>2020-08-30T20:07:38Z</time>
      </trkpt>
      <trkpt lat="51.229706347265" lon="4.461104839606">
        <ele>5.6</ele>
        <time>2020-08-30T20:07:54Z</time>
      </trkpt>
      <trkpt lat="51.229769882067" lon="4.461245571707">
        <ele>6.8</ele>
        <time>2020-08-30T20:08:10Z</time>
      </trkpt>
      <trkpt lat="51.229799051079" lon="4.461249008286">
        <ele>6.2</ele>
        <time>2020-08-30T20:08:13Z</time>
      </trkpt>
      <trkpt lat="51.229935843687" lon="4.461665756354">
        <ele>8</ele>
        <time>2020-08-30T20:08:48Z</time>
      </trkpt>
      <trkpt lat="51.230050088984" lon="4.462040008189">
        <ele>1.2</ele>
        <time>2020-08-30T20:09:35Z</time>
      </trkpt>
      <trkpt lat="51.230118652926" lon="4.462341337494">
        <ele>1.4</ele>
        <time>2020-08-30T20:09:54Z</time>
      </trkpt>
      <trkpt lat="51.230231640938" lon="4.462793205723">
        <ele>0</ele>
        <time>2020-08-30T20:10:29Z</time>
      </trkpt>
      <trkpt lat="51.230459712437" lon="4.463247085608">
        <ele>0</ele>
        <time>2020-08-30T20:11:06Z</time>
      </trkpt>
      <trkpt lat="51.230644784789" lon="4.463141892763">
        <ele>0</ele>
        <time>2020-08-30T20:11:21Z</time>
      </trkpt>
      <trkpt lat="51.230689627954" lon="4.463136109252">
        <ele>1</ele>
        <time>2020-08-30T20:11:27Z</time>
      </trkpt>
      <trkpt lat="51.231144429848" lon="4.463090595535">
        <ele>3.6</ele>
        <time>2020-08-30T20:11:56Z</time>
      </trkpt>
      <trkpt lat="51.231511640887" lon="4.463218754786">
        <ele>0.2</ele>
        <time>2020-08-30T20:12:33Z</time>
      </trkpt>
      <trkpt lat="51.23169160028" lon="4.463395696695">
        <ele>0</ele>
        <time>2020-08-30T20:13:01Z</time>
      </trkpt>
      <trkpt lat="51.231946829135" lon="4.463437857652">
        <ele>2</ele>
        <time>2020-08-30T20:13:32Z</time>
      </trkpt>
      <trkpt lat="51.232076078033" lon="4.462848526263">
        <ele>1</ele>
        <time>2020-08-30T20:14:46Z</time>
      </trkpt>
      <trkpt lat="51.232280428755" lon="4.462797396673">
        <ele>0</ele>
        <time>2020-08-30T20:15:34Z</time>
      </trkpt>
      <trkpt lat="51.232357290778" lon="4.462842575114">
        <ele>2</ele>
        <time>2020-08-30T20:15:43Z</time>
      </trkpt>
      <trkpt lat="51.232806309161" lon="4.462723468315">
        <ele>12.2</ele>
        <time>2020-08-30T20:16:16Z</time>
      </trkpt>
      <trkpt lat="51.23311819966" lon="4.462599164738">
        <ele>23</ele>
        <time>2020-08-30T20:16:42Z</time>
      </trkpt>
      <trkpt lat="51.233309139342" lon="4.462482740147">
        <ele>16</ele>
        <time>2020-08-30T20:17:02Z</time>
      </trkpt>
      <trkpt lat="51.233192128018" lon="4.46195023804">
        <ele>1</ele>
        <time>2020-08-30T20:17:27Z</time>
      </trkpt>
      <trkpt lat="51.233121803877" lon="4.461542961519">
        <ele>0</ele>
        <time>2020-08-30T20:17:45Z</time>
      </trkpt>
      <trkpt lat="51.233060951283" lon="4.461318158961">
        <ele>0</ele>
        <time>2020-08-30T20:18:06Z</time>
      </trkpt>
      <trkpt lat="51.233042175827" lon="4.460926053679">
        <ele>0</ele>
        <time>2020-08-30T20:18:28Z</time>
      </trkpt>
      <trkpt lat="51.232910747635" lon="4.460219962423">
        <ele>0</ele>
        <time>2020-08-30T20:19:00Z</time>
      </trkpt>
      <trkpt lat="51.232947963271" lon="4.460036482632">
        <ele>0</ele>
        <time>2020-08-30T20:19:11Z</time>
      </trkpt>
      <trkpt lat="51.232912675472" lon="4.459980323902">
        <ele>0.4</ele>
        <time>2020-08-30T20:19:16Z</time>
      </trkpt>
      <trkpt lat="51.232766411317" lon="4.459286637858">
        <ele>0</ele>
        <time>2020-08-30T20:19:53Z</time>
      </trkpt>
      <trkpt lat="51.232688375828" lon="4.458814233974">
        <ele>0</ele>
        <time>2020-08-30T20:20:22Z</time>
      </trkpt>
      <trkpt lat="51.232556947636" lon="4.458150806589">
        <ele>0</ele>
        <time>2020-08-30T20:20:55Z</time>
      </trkpt>
      <trkpt lat="51.232553511057" lon="4.458134294246">
        <ele>0</ele>
        <time>2020-08-30T20:20:56Z</time>
      </trkpt>
      <trkpt lat="51.232520821647" lon="4.458039746414">
        <ele>0</ele>
        <time>2020-08-30T20:21:07Z</time>
      </trkpt>
      <trkpt lat="51.232504309304" lon="4.457903289082">
        <ele>0</ele>
        <time>2020-08-30T20:21:26Z</time>
      </trkpt>
      <trkpt lat="51.232429878032" lon="4.45776012623">
        <ele>3.4</ele>
        <time>2020-08-30T20:21:45Z</time>
      </trkpt>
      <trkpt lat="51.232151598952" lon="4.457957771432">
        <ele>15.2</ele>
        <time>2020-08-30T20:22:15Z</time>
      </trkpt>
      <trkpt lat="51.231729067373" lon="4.458220543997">
        <ele>21.2</ele>
        <time>2020-08-30T20:22:45Z</time>
      </trkpt>
      <trkpt lat="51.231661928354" lon="4.458260441841">
        <ele>20</ele>
        <time>2020-08-30T20:22:50Z</time>
      </trkpt>
      <trkpt lat="51.231465037523" lon="4.458411232222">
        <ele>8.2</ele>
        <time>2020-08-30T20:23:20Z</time>
      </trkpt>
      <trkpt lat="51.231224644631" lon="4.458614996211">
        <ele>2.8</ele>
        <time>2020-08-30T20:23:39Z</time>
      </trkpt>
      <trkpt lat="51.231127330772" lon="4.458676770814">
        <ele>3.6</ele>
        <time>2020-08-30T20:23:47Z</time>
      </trkpt>
      <trkpt lat="51.230834467186" lon="4.458766457144">
        <ele>5.4</ele>
        <time>2020-08-30T20:24:16Z</time>
      </trkpt>
      <trkpt lat="51.230729777255" lon="4.458784729686">
        <ele>5.2</ele>
        <time>2020-08-30T20:24:24Z</time>
      </trkpt>
      <trkpt lat="51.230702116985" lon="4.458800068563">
        <ele>5</ele>
        <time>2020-08-30T20:24:26Z</time>
      </trkpt>
      <trkpt lat="51.230617962709" lon="4.45883300943">
        <ele>3.6</ele>
        <time>2020-08-30T20:24:32Z</time>
      </trkpt>
      <trkpt lat="51.230557193934" lon="4.45890425558">
        <ele>4.6</ele>
        <time>2020-08-30T20:24:39Z</time>
      </trkpt>
      <trkpt lat="51.230481673015" lon="4.459103660981">
        <ele>4</ele>
        <time>2020-08-30T20:25:05Z</time>
      </trkpt>
      <trkpt lat="51.230308922056" lon="4.458933759868">
        <ele>2.2</ele>
        <time>2020-08-30T20:25:45Z</time>
      </trkpt>
      <trkpt lat="51.230277992845" lon="4.458944907795">
        <ele>2.4</ele>
        <time>2020-08-30T20:25:48Z</time>
      </trkpt>
      <trkpt lat="51.229836015258" lon="4.459065355698">
        <ele>0</ele>
        <time>2020-08-30T20:26:42Z</time>
      </trkpt>
      <trkpt lat="51.229451453686" lon="4.458952619143">
        <ele>4</ele>
        <time>2020-08-30T20:27:21Z</time>
      </trkpt>
      <trkpt lat="51.22915439915" lon="4.459023613836">
        <ele>0.2</ele>
        <time>2020-08-30T20:28:02Z</time>
      </trkpt>
      <trkpt lat="51.229119865722" lon="4.459050268278">
        <ele>0</ele>
        <time>2020-08-30T20:28:06Z</time>
      </trkpt>
      <trkpt lat="51.229109723623" lon="4.459088489742">
        <ele>0</ele>
        <time>2020-08-30T20:28:09Z</time>
      </trkpt>
      <trkpt lat="51.229097066954" lon="4.459212458043">
        <ele>0</ele>
        <time>2020-08-30T20:28:16Z</time>
      </trkpt>
      <trkpt lat="51.228849381809" lon="4.4592630009">
        <ele>0</ele>
        <time>2020-08-30T20:29:06Z</time>
      </trkpt>
      <trkpt lat="51.228734549779" lon="4.459293343378">
        <ele>0</ele>
        <time>2020-08-30T20:29:18Z</time>
      </trkpt>
      <trkpt lat="51.228646875105" lon="4.459263084719">
        <ele>0</ele>
        <time>2020-08-30T20:29:30Z</time>
      </trkpt>
      <trkpt lat="51.228577305335" lon="4.458991930254">
        <ele>0</ele>
        <time>2020-08-30T20:29:52Z</time>
      </trkpt>
      <trkpt lat="51.228577472973" lon="4.458954798437">
        <ele>0</ele>
        <time>2020-08-30T20:29:54Z</time>
      </trkpt>
      <trkpt lat="51.228599014456" lon="4.458328670507">
        <ele>0</ele>
        <time>2020-08-30T20:30:35Z</time>
      </trkpt>
      <trkpt lat="51.228652574797" lon="4.458130941486">
        <ele>0</ele>
        <time>2020-08-30T20:30:48Z</time>
      </trkpt>
      <trkpt lat="51.228900930494" lon="4.458134461884">
        <ele>0</ele>
        <time>2020-08-30T20:31:09Z</time>
      </trkpt>
      <trkpt lat="51.229101509361" lon="4.458137227911">
        <ele>5</ele>
        <time>2020-08-30T20:31:39Z</time>
      </trkpt>
      <trkpt lat="51.229168396923" lon="4.458097330067">
        <ele>4.2</ele>
        <time>2020-08-30T20:31:50Z</time>
      </trkpt>
      <trkpt lat="51.229433432601" lon="4.457940001804">
        <ele>0</ele>
        <time>2020-08-30T20:32:22Z</time>
      </trkpt>
      <trkpt lat="51.229663096661" lon="4.457818380435">
        <ele>14</ele>
        <time>2020-08-30T20:33:18Z</time>
      </trkpt>
    </trkseg>
  </trk>
</gpx>